createdAt,value
2018-12-14T00:05:08.651Z,23.93
2018-12-14T00:11:13.572Z,23.70
2018-12-14T00:17:18.488Z,25.70
2018-12-14T00:23:23.173Z,23.03
2018-12-14T00:29:28.118Z,24.37
2018-12-14T00:35:33.226Z,24.63
2018-12-14T00:41:37.965Z,26.03
2018-12-14T00:47:42.868Z,25.57
2018-12-14T00:53:47.603Z,26.90
2018-12-14T00:59:52.307Z,27.57
2018-12-14T01:05:57.021Z,28.57
2018-12-14T01:12:01.982Z,26.57
2018-12-14T01:18:06.667Z,26.97
2018-12-14T01:24:11.357Z,29.33
2018-12-14T01:30:16.388Z,25.70
2018-12-14T01:36:21.165Z,26.33
2018-12-14T01:42:25.912Z,24.20
2018-12-14T01:48:30.614Z,29.23
2018-12-14T01:54:35.442Z,29.70
2018-12-14T02:00:40.479Z,23.50
2018-12-14T02:06:45.291Z,27.20
2018-12-14T02:12:50.843Z,23.60
2018-12-14T02:18:55.742Z,23.20
2018-12-14T02:25:00.527Z,22.43
2018-12-14T02:31:05.378Z,22.50
2018-12-14T02:37:10.886Z,25.63
2018-12-14T02:43:15.858Z,24.13
2018-12-14T02:49:20.818Z,22.20
2018-12-14T02:55:25.679Z,22.97
2018-12-14T03:01:30.745Z,22.37
2018-12-14T03:07:35.561Z,23.13
2018-12-14T03:13:40.544Z,20.47
2018-12-14T03:19:45.490Z,24.37
2018-12-14T03:25:50.748Z,22.43
2018-12-14T03:31:55.613Z,23.60
2018-12-14T03:38:00.367Z,22.30
2018-12-14T03:44:06.040Z,22.07
2018-12-14T03:50:10.908Z,21.87
2018-12-14T03:56:15.708Z,21.30
2018-12-14T04:02:20.620Z,23.70
2018-12-14T04:08:25.308Z,20.97
2018-12-14T04:14:30.341Z,20.33
2018-12-14T04:20:35.295Z,22.00
2018-12-14T04:26:39.980Z,20.80
2018-12-14T04:32:44.702Z,22.43
2018-12-14T04:38:49.463Z,23.13
2018-12-14T04:44:54.350Z,21.97
2018-12-14T04:50:59.545Z,25.63
2018-12-14T04:57:04.468Z,24.47
2018-12-14T05:03:09.834Z,21.10
2018-12-14T05:09:15.421Z,24.43
2018-12-14T05:15:20.726Z,23.90
2018-12-14T05:21:25.530Z,24.97
2018-12-14T05:27:32.695Z,25.07
2018-12-14T05:33:37.558Z,23.43
2018-12-14T05:39:42.321Z,22.77
2018-12-14T05:45:47.289Z,25.17
2018-12-14T05:51:52.125Z,25.27
2018-12-14T05:57:56.836Z,23.30
2018-12-14T06:04:02.328Z,22.27
2018-12-14T06:10:08.596Z,23.73
2018-12-14T06:16:13.590Z,25.57
2018-12-14T06:22:18.634Z,26.67
2018-12-14T06:28:23.571Z,25.37
2018-12-14T06:34:28.462Z,24.53
2018-12-14T06:40:33.320Z,24.57
2018-12-14T06:46:38.200Z,23.37
2018-12-14T06:52:43.025Z,27.60
2018-12-14T06:58:48.417Z,24.27
2018-12-14T07:04:53.238Z,23.83
2018-12-14T07:10:58.050Z,24.53
2018-12-14T07:17:03.010Z,27.27
2018-12-14T07:23:08.581Z,29.73
2018-12-14T07:29:14.217Z,26.90
2018-12-14T07:35:24.322Z,26.50
2018-12-14T07:41:29.269Z,25.27
2018-12-14T07:47:34.333Z,25.03
2018-12-14T07:53:39.432Z,28.07
2018-12-14T07:59:44.284Z,28.83
2018-12-14T08:05:49.184Z,28.23
2018-12-14T08:11:53.934Z,27.70
2018-12-14T08:17:58.669Z,26.67
2018-12-14T08:24:03.778Z,25.80
2018-12-14T08:30:09.541Z,28.50
2018-12-14T08:36:14.326Z,28.00
2018-12-14T08:42:19.205Z,26.00
2018-12-14T08:48:24.377Z,28.27
2018-12-14T08:54:29.079Z,24.07
2018-12-14T09:00:33.830Z,25.10
2018-12-14T09:06:38.937Z,26.47
2018-12-14T09:12:43.945Z,23.70
2018-12-14T09:18:48.969Z,25.33
2018-12-14T09:24:53.897Z,22.63
2018-12-14T09:30:58.964Z,26.10
2018-12-14T09:37:03.861Z,23.87
2018-12-14T09:43:08.715Z,23.83
2018-12-14T09:49:13.592Z,26.13
2018-12-14T09:55:19.529Z,28.90
2018-12-14T10:01:25.217Z,23.37
2018-12-14T10:07:29.953Z,20.93
2018-12-14T10:13:34.908Z,24.00
2018-12-14T10:19:39.718Z,46.33
2018-12-14T10:25:44.549Z,25.53
2018-12-14T10:31:49.982Z,27.87
2018-12-14T10:37:54.881Z,26.03
2018-12-14T10:44:00.116Z,23.07
2018-12-14T10:50:07.344Z,26.90
2018-12-14T10:56:12.154Z,23.23
2018-12-14T11:02:17.512Z,24.97
2018-12-14T11:08:22.531Z,21.40
2018-12-14T11:14:27.288Z,23.13
2018-12-14T11:20:32.182Z,23.17
2018-12-14T11:26:37.666Z,22.03
2018-12-14T11:32:42.415Z,21.43
2018-12-14T11:38:47.711Z,20.97
2018-12-14T11:44:52.743Z,18.87
2018-12-14T11:50:57.583Z,24.17
2018-12-14T11:57:02.363Z,24.27
2018-12-14T12:03:07.325Z,25.10
2018-12-14T12:09:13.451Z,23.97
2018-12-14T12:15:18.610Z,24.20
2018-12-14T12:21:24.705Z,23.60
2018-12-14T12:27:29.573Z,22.70
2018-12-14T12:33:34.460Z,31.90
2018-12-14T12:39:39.273Z,26.70
2018-12-14T12:45:44.245Z,22.97
2018-12-14T12:51:49.111Z,25.97
2018-12-14T12:57:54.083Z,25.40
2018-12-14T13:04:00.373Z,27.60
2018-12-14T13:10:05.728Z,25.17
2018-12-14T13:16:10.862Z,25.90
2018-12-14T13:22:17.109Z,24.23
2018-12-14T13:28:22.357Z,23.57
2018-12-14T13:34:27.341Z,27.47
2018-12-14T13:40:33.104Z,26.70
2018-12-14T13:46:39.084Z,23.93
2018-12-14T13:52:43.974Z,27.83
2018-12-14T13:58:49.409Z,28.27
2018-12-14T14:04:54.216Z,19.77
2018-12-14T14:10:59.505Z,21.47
2018-12-14T14:17:04.273Z,22.83
2018-12-14T14:23:09.177Z,23.67
2018-12-14T14:29:14.130Z,23.90
2018-12-14T14:35:21.114Z,22.20
2018-12-14T14:41:26.687Z,23.83
2018-12-14T14:47:31.693Z,22.10
2018-12-14T14:53:36.589Z,21.67
2018-12-14T14:59:41.417Z,23.40
2018-12-14T15:05:46.118Z,22.20
2018-12-14T15:11:50.961Z,21.87
2018-12-14T15:17:55.911Z,22.90
2018-12-14T15:24:00.877Z,24.13
2018-12-14T15:30:06.557Z,20.50
2018-12-14T15:36:11.614Z,23.03
2018-12-14T15:42:16.406Z,22.13
2018-12-14T15:48:21.912Z,25.03
2018-12-14T16:17:37.922Z,24.23
2018-12-14T16:23:42.915Z,24.17
2018-12-14T16:29:48.114Z,22.60
2018-12-14T16:35:52.991Z,23.17
2018-12-14T16:41:58.045Z,24.50
2018-12-14T16:48:03.673Z,24.83
2018-12-14T16:54:09.202Z,23.10
2018-12-14T17:00:14.511Z,25.10
2018-12-14T17:06:19.676Z,25.77
2018-12-14T17:12:24.542Z,23.67
2018-12-14T17:18:29.468Z,20.30
2018-12-14T17:24:34.436Z,23.30
2018-12-14T17:30:39.301Z,24.73
2018-12-14T17:43:06.181Z,24.80
2018-12-14T17:49:10.968Z,26.13
2018-12-14T17:55:15.983Z,27.23
2018-12-14T18:01:21.053Z,22.87
2018-12-14T18:07:26.454Z,21.70
2018-12-14T18:13:31.172Z,27.23
2018-12-14T18:19:36.045Z,24.23
2018-12-14T18:25:41.168Z,24.67
2018-12-14T18:31:46.354Z,23.00
2018-12-14T18:37:51.185Z,23.00
2018-12-14T18:43:55.966Z,24.87
2018-12-14T18:50:00.857Z,24.63
2018-12-14T18:56:05.650Z,27.63
2018-12-14T19:02:10.387Z,43.57
2018-12-14T19:08:15.379Z,33.70
2018-12-14T19:14:20.200Z,30.77
2018-12-14T19:20:25.025Z,27.23
2018-12-14T19:26:29.713Z,25.63
2018-12-14T19:32:34.522Z,25.80
2018-12-14T19:38:39.431Z,23.53
2018-12-14T19:44:44.367Z,24.23
2018-12-14T19:50:49.331Z,23.60
2018-12-14T19:56:54.470Z,24.30
2018-12-14T20:02:59.405Z,22.37
2018-12-14T20:09:05.590Z,24.73
2018-12-14T20:15:10.455Z,26.33
2018-12-14T20:21:15.161Z,22.00
2018-12-14T20:27:20.118Z,26.30
2018-12-14T20:33:25.743Z,20.60
2018-12-14T20:39:30.607Z,23.53
2018-12-14T20:45:35.459Z,21.87
2018-12-14T20:51:40.592Z,30.47
2018-12-14T20:57:45.371Z,26.40
2018-12-14T21:03:51.588Z,18.57
2018-12-14T21:09:56.535Z,20.23
2018-12-14T21:16:01.910Z,18.70
2018-12-14T21:22:13.245Z,16.67
2018-12-14T21:28:17.942Z,14.40
2018-12-14T21:34:22.687Z,13.93
2018-12-14T21:40:27.626Z,13.37
2018-12-14T21:46:32.889Z,11.73
2018-12-14T21:52:37.755Z,12.83
2018-12-14T21:58:44.643Z,12.07
2018-12-14T22:04:49.788Z,11.07
2018-12-14T22:10:54.646Z,12.93
2018-12-14T22:16:59.678Z,11.47
2018-12-14T22:23:04.516Z,10.27
2018-12-14T22:29:09.277Z,9.87
2018-12-14T22:35:14.256Z,9.73
2018-12-14T22:41:19.127Z,7.80
2018-12-14T22:47:24.585Z,9.33
2018-12-14T22:53:29.631Z,9.50
2018-12-14T22:59:34.650Z,9.40
2018-12-14T23:05:39.462Z,9.43
2018-12-14T23:11:44.123Z,9.63
2018-12-14T23:17:49.718Z,10.47
2018-12-14T23:23:54.554Z,10.80
2018-12-14T23:29:59.386Z,11.70
2018-12-14T23:36:04.451Z,10.53
2018-12-14T23:42:09.269Z,10.43
2018-12-14T23:48:14.000Z,9.57
2018-12-14T23:54:18.841Z,8.33
